Details From YBBN - Brisbane Intl
To YBHM - Hamilton I.
Flight Number -
Tags decoded
Created
Modified
Stats Distance 480 nm / 888 km
Max Altitude 0 ft / 0 m
Waypoints 2
Social Downloads 0
Likes 0
Share VATSIM

Download

Looking for another format? Having issues loading an existing format? Contact us
Advertisement - Login to hide

Notes

Requested: YBBN N/A YBHM Unmatched points: N/A

Route

YBBN YBHM

ID Type Via Altitude (ft/m) Position (lat/lon) Dist (leg/tot) Name
O YBBN APT - 0 / 0 -27.37571 / 153.12771 - / 0 nm Brisbane Intl
O YBHM APT - 0 / 0 -20.35748 / 148.95164 479 / 479 nm Hamilton I.

Altitude Profile

Advertisement - Login to hide

Weather


0- 5 10 15 20 25 30 35+ Temperature / °C

Clouds and Precipitation
Forecast for 2018-09-21 18:00 UTC. Updated 6 hours ago

Ground ~20,000 ft ~40,000 ft Winds

YBBN

Details ICAO YBBN (BNE)
Name Brisbane Intl
Region Australia
Timezone Australia/Brisbane (UTC+10.0)
Stats Elevation 12 ft / 4 m (AMSL)
Location -27.375800° 153.128000°
Runways 2
Magnetic Variation 10.988° E

METAR

YBBN 212100Z 21011KT CAVOK 15/10 Q1027 NOSIG

Decode

TAF

TAF YBBN 211705Z 2118/2224 19006KT 9999 FEW030 FM212300 14010KT 9999 FEW035 SCT050 FM220200 10012KT 9999 FEW035 SCT055 FM221100 VRB05KT 9999 FEW030 FM221600 19005KT 9999 FEW030

Decode

Departure Runways

ID Width Length Bearing (true/mag) Surface Threshold Overrun Markings Lighting
01 148 ft / 45 m 11,744 ft / 3,580 m 26.93° / 15.94° ASPHALT 213 ft / 65 m 0 ft / 0 m UK-APP CENTERLINE EDGE THRESHOLD CALVERT REIL-OMNI
14 98 ft / 30 m 5,787 ft / 1,764 m 145.66° / 134.68° ASPHALT 197 ft / 60 m 0 ft / 0 m APP EDGE THRESHOLD
19 148 ft / 45 m 11,744 ft / 3,580 m 206.92° / 195.94° ASPHALT 0 ft / 0 m 0 ft / 0 m UK-APP CENTERLINE EDGE THRESHOLD CALVERT TDZ REIL-OMNI
32 98 ft / 30 m 5,787 ft / 1,764 m 325.66° / 314.67° ASPHALT 197 ft / 60 m 0 ft / 0 m APP EDGE THRESHOLD

YBHM

Details ICAO YBHM (HTI)
Name Hamilton I.
Region Australia
Timezone Australia/Lindeman (UTC+10.0)
Stats Elevation 14 ft / 4 m (AMSL)
Location -20.357500° 148.952000°
Runways 1
Magnetic Variation 8.144° E

METAR

YBHM 212100Z AUTO 12026KT 9999 // SCT035 BKN041 BKN054 21/16 Q1022

Decode

TAF

TAF YBHM 211700Z 2118/2206 12025KT 9999 -SHRA FEW018 SCT025 FM220200 13024KT 9999 FEW020 SCT030 BKN045

Decode

Destination Runways

ID Width Length Bearing (true/mag) Surface Threshold Overrun Markings Lighting
14 151 ft / 46 m 5,596 ft / 1,706 m 143.03° / 134.89° ASPHALT 0 ft / 0 m 0 ft / 0 m PREC-APP CENTERLINE EDGE THRESHOLD
32 151 ft / 46 m 5,596 ft / 1,706 m 323.03° / 314.88° ASPHALT 0 ft / 0 m 0 ft / 0 m PREC-APP CENTERLINE EDGE THRESHOLD

Popular Alternatives